Terminal Aerodrome Forecast
Issued by NWS Green Bay, WI

Home | Current Version | Previous Version | Graphics & Text | Print | Product List | Glossary On
Versions: 1 2 3 4 5 6 7 8 9 10 11 12 13 14 15 16 17 18 19 20 21 22 23 24 25 26 27 28
799
FTUS43 KGRB 091505 AAA
TAFGRB
TAF AMD
KGRB 091505Z 0915/1012 31010KT 6SM -SN SCT035 OVC045
      TEMPO 0915/0918 3SM -SN BKN035
     FM091800 33014G22KT P6SM -SN BKN040 OVC080
      TEMPO 0922/1002 4SM -SN BKN025
     FM100400 32012G20KT P6SM BKN040
      TEMPO 1008/1012 SCT040=

USA.gov is the U.S. government's official web portal to all federal, state and local government web resources and services.